°C

Conditions at local time : on    Forecast:

Nearby METAR Reports





EGKA - Shoreham-By-Sea, United Kingdom
Distance from station: ENE 4mi, 6km
Updated: Thu, 28-Oct-2021 8:50am BST
Mostly Cloudy
Mostly Cloudy
 Wind from SSW
Wind: SSW 16 mph , 26 km/h
Temperature: 14°C
Dew Point: 11°C
Humidity: 82%
Barometer: 1012 hPa
Clouds: Mostly Cloudy
Visibility: 6 miles , 10 km
Cloud details: Mostly Cloudy 579 m
2021/10/28 07:50 EGKA 280750Z 20014KT 9999 BKN019 14/11 Q1012
EGKK - London/Gatwick A, United Kingdom
Distance from station: NNE 24mi, 39km
Updated: Thu, 28-Oct-2021 8:50am BST
Partly Cloudy
Partly Cloudy
 Wind from S
Wind: S 8 mph , 13 km/h
Temperature: 13°C
Dew Point: 10°C
Humidity: 82%
Barometer: 1011 hPa
Clouds: Partly Cloudy
Visibility: 6 miles , 10 km
Cloud details: Partly Cloudy 549 m
2021/10/28 07:50 EGKK 280750Z 19007KT 9999 SCT018 13/10 Q1011
 
EGLF - Farnborough, United Kingdom
Distance from station: NNW 37mi, 59km
Updated: Thu, 28-Oct-2021 8:50am BST
Partly Cloudy
Partly Cloudy
 Wind from S
Wind: S 9 mph , 15 km/h
Temperature: 13°C
Dew Point: 11°C
Humidity: 88%
Barometer: 1010 hPa
Clouds: Partly Cloudy
Visibility: 6 miles , 10 km
Cloud details: Partly Cloudy 732 m
2021/10/28 07:50 EGLF 280750Z 17008KT 9999 SCT024 13/11 Q1010
EGVO - Odiham Raf, United Kingdom
Distance from station: NW 38mi, 61km
Updated: Thu, 28-Oct-2021 8:50am BST
Mostly Cloudy
Mostly Cloudy
 Wind from SSE
Wind: SSE 10 mph , 17 km/h
Temperature: 13°C
Dew Point: 11°C
Humidity: 88%
Barometer: 1010 hPa
Clouds: Mostly Cloudy
Visibility: 6 miles , 10 km
Cloud details: Few Clouds 518 m
Mostly Cloudy 671 m
2021/10/28 07:50 EGVO 280750Z 15009KT 9999 FEW017 BKN022 13/11 Q1010 TEMPO FEW017 BKN025 RMK WHT TEMPO BLU